sensor_id;sensor_type;location;lat;lon;timestamp;P1;durP1;ratioP1;P2;durP2;ratioP2
20090;SDS011;10205;49.678;6.560;2023-05-08T00:02:21;1.40;;;1.30;;
20090;SDS011;10205;49.678;6.560;2023-05-08T00:04:48;1.52;;;1.42;;
20090;SDS011;10205;49.678;6.560;2023-05-08T00:07:15;1.85;;;1.55;;
20090;SDS011;10205;49.678;6.560;2023-05-08T00:09:42;1.35;;;1.25;;
20090;SDS011;10205;49.678;6.560;2023-05-08T00:12:10;1.50;;;1.23;;
20090;SDS011;10205;49.678;6.560;2023-05-08T00:14:37;2.45;;;1.70;;
20090;SDS011;10205;49.678;6.560;2023-05-08T00:17:04;1.40;;;1.30;;
20090;SDS011;10205;49.678;6.560;2023-05-08T00:19:33;1.40;;;1.30;;
20090;SDS011;10205;49.678;6.560;2023-05-08T00:22:00;1.77;;;1.35;;
20090;SDS011;10205;49.678;6.560;2023-05-08T00:24:27;1.80;;;1.70;;
20090;SDS011;10205;49.678;6.560;2023-05-08T00:26:54;1.45;;;1.30;;
20090;SDS011;10205;49.678;6.560;2023-05-08T00:29:21;1.58;;;1.48;;
20090;SDS011;10205;49.678;6.560;2023-05-08T00:31:49;1.85;;;1.75;;
20090;SDS011;10205;49.678;6.560;2023-05-08T00:34:16;1.52;;;1.42;;
20090;SDS011;10205;49.678;6.560;2023-05-08T00:36:44;1.80;;;1.58;;
20090;SDS011;10205;49.678;6.560;2023-05-08T00:39:11;1.65;;;1.52;;
20090;SDS011;10205;49.678;6.560;2023-05-08T00:41:38;1.45;;;1.30;;
20090;SDS011;10205;49.678;6.560;2023-05-08T00:44:05;1.58;;;1.40;;
20090;SDS011;10205;49.678;6.560;2023-05-08T00:46:32;2.10;;;1.30;;
20090;SDS011;10205;49.678;6.560;2023-05-08T00:49:01;1.55;;;1.40;;
20090;SDS011;10205;49.678;6.560;2023-05-08T00:51:30;2.47;;;1.55;;
20090;SDS011;10205;49.678;6.560;2023-05-08T00:53:59;1.50;;;1.40;;
20090;SDS011;10205;49.678;6.560;2023-05-08T00:56:26;1.60;;;1.50;;
20090;SDS011;10205;49.678;6.560;2023-05-08T00:58:55;1.40;;;1.30;;
20090;SDS011;10205;49.678;6.560;2023-05-08T01:01:23;1.77;;;1.38;;
20090;SDS011;10205;49.678;6.560;2023-05-08T01:03:50;1.50;;;1.38;;
20090;SDS011;10205;49.678;6.560;2023-05-08T01:06:18;1.63;;;1.50;;
20090;SDS011;10205;49.678;6.560;2023-05-08T01:08:45;2.25;;;1.25;;
20090;SDS011;10205;49.678;6.560;2023-05-08T01:11:14;1.42;;;1.33;;
20090;SDS011;10205;49.678;6.560;2023-05-08T01:13:51;1.70;;;1.45;;
20090;SDS011;10205;49.678;6.560;2023-05-08T01:16:37;1.50;;;1.40;;
20090;SDS011;10205;49.678;6.560;2023-05-08T01:19:18;2.67;;;1.40;;
20090;SDS011;10205;49.678;6.560;2023-05-08T01:22:17;1.42;;;1.30;;
20090;SDS011;10205;49.678;6.560;2023-05-08T01:28:48;1.30;;;1.20;;
20090;SDS011;10205;49.678;6.560;2023-05-08T01:34:40;1.40;;;1.30;;
20090;SDS011;10205;49.678;6.560;2023-05-08T01:37:21;1.30;;;1.20;;
20090;SDS011;10205;49.678;6.560;2023-05-08T01:40:00;1.40;;;1.23;;
20090;SDS011;10205;49.678;6.560;2023-05-08T01:42:43;1.50;;;1.13;;
20090;SDS011;10205;49.678;6.560;2023-05-08T01:45:18;1.55;;;1.45;;
20090;SDS011;10205;49.678;6.560;2023-05-08T01:47:55;1.40;;;1.17;;
20090;SDS011;10205;49.678;6.560;2023-05-08T01:50:32;1.40;;;1.30;;
20090;SDS011;10205;49.678;6.560;2023-05-08T01:53:12;1.20;;;1.10;;
20090;SDS011;10205;49.678;6.560;2023-05-08T01:55:52;1.40;;;1.30;;
20090;SDS011;10205;49.678;6.560;2023-05-08T01:58:25;1.25;;;1.15;;
20090;SDS011;10205;49.678;6.560;2023-05-08T02:00:55;1.48;;;1.33;;
20090;SDS011;10205;49.678;6.560;2023-05-08T02:03:27;1.38;;;1.27;;
20090;SDS011;10205;49.678;6.560;2023-05-08T02:05:59;1.40;;;1.27;;
20090;SDS011;10205;49.678;6.560;2023-05-08T02:08:28;2.55;;;1.20;;
20090;SDS011;10205;49.678;6.560;2023-05-08T02:10:58;1.45;;;1.33;;
20090;SDS011;10205;49.678;6.560;2023-05-08T02:13:27;1.40;;;1.30;;
20090;SDS011;10205;49.678;6.560;2023-05-08T02:15:58;1.40;;;1.30;;
20090;SDS011;10205;49.678;6.560;2023-05-08T02:18:28;1.50;;;1.40;;
20090;SDS011;10205;49.678;6.560;2023-05-08T02:20:57;2.25;;;1.40;;
20090;SDS011;10205;49.678;6.560;2023-05-08T02:23:29;1.33;;;1.23;;
20090;SDS011;10205;49.678;6.560;2023-05-08T02:25:58;1.33;;;1.20;;
20090;SDS011;10205;49.678;6.560;2023-05-08T02:28:28;1.40;;;1.30;;
20090;SDS011;10205;49.678;6.560;2023-05-08T02:30:58;1.35;;;1.20;;
20090;SDS011;10205;49.678;6.560;2023-05-08T02:33:31;1.35;;;1.25;;
20090;SDS011;10205;49.678;6.560;2023-05-08T02:36:00;1.35;;;1.25;;
20090;SDS011;10205;49.678;6.560;2023-05-08T02:38:29;1.30;;;1.20;;
20090;SDS011;10205;49.678;6.560;2023-05-08T02:40:59;1.55;;;1.42;;
20090;SDS011;10205;49.678;6.560;2023-05-08T02:43:29;1.30;;;1.20;;
20090;SDS011;10205;49.678;6.560;2023-05-08T02:46:01;1.88;;;1.30;;
20090;SDS011;10205;49.678;6.560;2023-05-08T02:48:43;1.50;;;1.38;;
20090;SDS011;10205;49.678;6.560;2023-05-08T02:51:23;1.13;;;1.10;;
20090;SDS011;10205;49.678;6.560;2023-05-08T02:54:01;1.30;;;1.20;;
20090;SDS011;10205;49.678;6.560;2023-05-08T02:56:36;1.58;;;1.30;;
20090;SDS011;10205;49.678;6.560;2023-05-08T02:59:12;1.27;;;1.17;;
20090;SDS011;10205;49.678;6.560;2023-05-08T03:01:48;1.27;;;1.17;;
20090;SDS011;10205;49.678;6.560;2023-05-08T03:04:36;1.30;;;1.20;;
20090;SDS011;10205;49.678;6.560;2023-05-08T03:07:12;1.88;;;1.30;;
20090;SDS011;10205;49.678;6.560;2023-05-08T03:09:42;1.45;;;1.30;;
20090;SDS011;10205;49.678;6.560;2023-05-08T03:12:14;1.38;;;1.27;;
20090;SDS011;10205;49.678;6.560;2023-05-08T03:14:50;1.92;;;1.30;;
20090;SDS011;10205;49.678;6.560;2023-05-08T03:17:28;1.40;;;1.30;;
20090;SDS011;10205;49.678;6.560;2023-05-08T03:20:01;1.70;;;1.17;;
20090;SDS011;10205;49.678;6.560;2023-05-08T03:22:33;1.40;;;1.30;;
20090;SDS011;10205;49.678;6.560;2023-05-08T03:25:04;1.33;;;1.23;;
20090;SDS011;10205;49.678;6.560;2023-05-08T03:27:35;1.52;;;1.30;;
20090;SDS011;10205;49.678;6.560;2023-05-08T03:30:06;1.25;;;1.15;;
20090;SDS011;10205;49.678;6.560;2023-05-08T03:32:36;2.38;;;1.40;;
20090;SDS011;10205;49.678;6.560;2023-05-08T03:35:08;1.65;;;1.30;;
20090;SDS011;10205;49.678;6.560;2023-05-08T03:37:35;1.50;;;1.40;;
20090;SDS011;10205;49.678;6.560;2023-05-08T03:40:03;1.45;;;1.35;;
20090;SDS011;10205;49.678;6.560;2023-05-08T03:42:33;1.30;;;1.20;;
20090;SDS011;10205;49.678;6.560;2023-05-08T03:45:02;1.50;;;1.38;;
20090;SDS011;10205;49.678;6.560;2023-05-08T03:47:32;1.40;;;1.30;;
20090;SDS011;10205;49.678;6.560;2023-05-08T03:50:02;1.20;;;1.10;;
20090;SDS011;10205;49.678;6.560;2023-05-08T03:52:32;1.58;;;1.48;;
20090;SDS011;10205;49.678;6.560;2023-05-08T03:55:00;1.77;;;1.50;;
20090;SDS011;10205;49.678;6.560;2023-05-08T03:57:29;1.55;;;1.45;;
20090;SDS011;10205;49.678;6.560;2023-05-08T04:00:05;1.63;;;1.50;;
20090;SDS011;10205;49.678;6.560;2023-05-08T04:02:42;1.40;;;1.30;;
20090;SDS011;10205;49.678;6.560;2023-05-08T04:05:16;1.45;;;1.25;;
20090;SDS011;10205;49.678;6.560;2023-05-08T04:07:56;1.40;;;1.30;;
20090;SDS011;10205;49.678;6.560;2023-05-08T04:10:32;1.38;;;1.27;;
20090;SDS011;10205;49.678;6.560;2023-05-08T04:13:07;1.80;;;1.30;;
20090;SDS011;10205;49.678;6.560;2023-05-08T04:15:43;1.40;;;1.30;;
20090;SDS011;10205;49.678;6.560;2023-05-08T04:18:19;1.70;;;1.60;;
20090;SDS011;10205;49.678;6.560;2023-05-08T04:20:53;2.30;;;1.45;;
20090;SDS011;10205;49.678;6.560;2023-05-08T04:23:24;4.13;;;1.27;;
20090;SDS011;10205;49.678;6.560;2023-05-08T04:25:55;1.40;;;1.30;;
20090;SDS011;10205;49.678;6.560;2023-05-08T04:28:24;2.35;;;1.30;;
20090;SDS011;10205;49.678;6.560;2023-05-08T04:30:52;1.50;;;1.40;;
20090;SDS011;10205;49.678;6.560;2023-05-08T04:33:22;1.60;;;1.50;;
20090;SDS011;10205;49.678;6.560;2023-05-08T04:35:50;1.40;;;1.30;;
20090;SDS011;10205;49.678;6.560;2023-05-08T04:38:17;1.40;;;1.30;;
20090;SDS011;10205;49.678;6.560;2023-05-08T04:40:46;2.38;;;1.38;;
20090;SDS011;10205;49.678;6.560;2023-05-08T04:43:13;1.70;;;1.60;;
20090;SDS011;10205;49.678;6.560;2023-05-08T04:45:42;1.48;;;1.38;;
20090;SDS011;10205;49.678;6.560;2023-05-08T04:48:09;1.45;;;1.35;;
20090;SDS011;10205;49.678;6.560;2023-05-08T04:50:37;2.13;;;1.20;;
20090;SDS011;10205;49.678;6.560;2023-05-08T04:53:04;1.48;;;1.20;;
20090;SDS011;10205;49.678;6.560;2023-05-08T04:55:31;2.65;;;1.30;;
20090;SDS011;10205;49.678;6.560;2023-05-08T04:58:00;1.58;;;1.48;;
20090;SDS011;10205;49.678;6.560;2023-05-08T05:00:27;1.45;;;1.35;;
20090;SDS011;10205;49.678;6.560;2023-05-08T05:02:54;1.77;;;1.67;;
20090;SDS011;10205;49.678;6.560;2023-05-08T05:05:21;1.33;;;1.23;;
20090;SDS011;10205;49.678;6.560;2023-05-08T05:07:48;1.60;;;1.50;;
20090;SDS011;10205;49.678;6.560;2023-05-08T05:10:15;1.52;;;1.23;;
20090;SDS011;10205;49.678;6.560;2023-05-08T05:12:42;2.25;;;1.13;;
20090;SDS011;10205;49.678;6.560;2023-05-08T05:15:11;1.65;;;1.40;;
20090;SDS011;10205;49.678;6.560;2023-05-08T05:17:38;1.75;;;1.50;;
20090;SDS011;10205;49.678;6.560;2023-05-08T05:20:06;1.70;;;1.52;;
20090;SDS011;10205;49.678;6.560;2023-05-08T05:22:34;1.58;;;1.48;;
20090;SDS011;10205;49.678;6.560;2023-05-08T05:25:01;1.73;;;1.63;;
20090;SDS011;10205;49.678;6.560;2023-05-08T05:27:29;1.55;;;1.45;;
20090;SDS011;10205;49.678;6.560;2023-05-08T05:29:57;1.40;;;1.30;;
20090;SDS011;10205;49.678;6.560;2023-05-08T05:32:25;2.38;;;1.50;;
20090;SDS011;10205;49.678;6.560;2023-05-08T05:34:52;1.75;;;1.65;;
20090;SDS011;10205;49.678;6.560;2023-05-08T05:37:19;1.50;;;1.40;;
20090;SDS011;10205;49.678;6.560;2023-05-08T05:39:47;1.70;;;1.60;;
20090;SDS011;10205;49.678;6.560;2023-05-08T05:42:14;1.45;;;1.35;;
20090;SDS011;10205;49.678;6.560;2023-05-08T05:44:41;1.23;;;1.13;;
20090;SDS011;10205;49.678;6.560;2023-05-08T05:47:08;1.90;;;1.80;;
20090;SDS011;10205;49.678;6.560;2023-05-08T05:49:36;1.77;;;1.50;;
20090;SDS011;10205;49.678;6.560;2023-05-08T05:52:07;2.42;;;1.83;;
20090;SDS011;10205;49.678;6.560;2023-05-08T05:54:34;1.73;;;1.60;;
20090;SDS011;10205;49.678;6.560;2023-05-08T05:57:01;2.70;;;1.73;;
20090;SDS011;10205;49.678;6.560;2023-05-08T05:59:28;1.75;;;1.50;;
20090;SDS011;10205;49.678;6.560;2023-05-08T06:01:55;2.70;;;1.77;;
20090;SDS011;10205;49.678;6.560;2023-05-08T06:04:22;2.03;;;1.83;;
20090;SDS011;10205;49.678;6.560;2023-05-08T06:06:51;2.03;;;1.60;;
20090;SDS011;10205;49.678;6.560;2023-05-08T06:09:18;1.85;;;1.75;;
20090;SDS011;10205;49.678;6.560;2023-05-08T06:11:45;1.75;;;1.65;;
20090;SDS011;10205;49.678;6.560;2023-05-08T06:14:13;3.25;;;1.63;;
20090;SDS011;10205;49.678;6.560;2023-05-08T06:16:40;2.30;;;2.10;;
20090;SDS011;10205;49.678;6.560;2023-05-08T06:19:08;3.10;;;2.40;;
20090;SDS011;10205;49.678;6.560;2023-05-08T06:21:36;2.30;;;2.10;;
20090;SDS011;10205;49.678;6.560;2023-05-08T06:24:05;2.55;;;2.35;;
20090;SDS011;10205;49.678;6.560;2023-05-08T06:26:32;3.03;;;2.53;;
20090;SDS011;10205;49.678;6.560;2023-05-08T06:28:59;4.10;;;2.65;;
20090;SDS011;10205;49.678;6.560;2023-05-08T06:31:26;3.85;;;2.50;;
20090;SDS011;10205;49.678;6.560;2023-05-08T06:33:53;2.85;;;2.65;;
20090;SDS011;10205;49.678;6.560;2023-05-08T06:36:20;3.22;;;2.95;;
20090;SDS011;10205;49.678;6.560;2023-05-08T06:38:47;3.22;;;2.95;;
20090;SDS011;10205;49.678;6.560;2023-05-08T06:41:16;3.63;;;2.67;;
20090;SDS011;10205;49.678;6.560;2023-05-08T06:43:43;3.28;;;2.97;;
20090;SDS011;10205;49.678;6.560;2023-05-08T06:46:10;3.20;;;2.90;;
20090;SDS011;10205;49.678;6.560;2023-05-08T06:48:37;3.22;;;2.92;;
20090;SDS011;10205;49.678;6.560;2023-05-08T06:51:05;3.30;;;3.00;;
20090;SDS011;10205;49.678;6.560;2023-05-08T06:53:32;4.07;;;2.83;;
20090;SDS011;10205;49.678;6.560;2023-05-08T06:55:59;3.00;;;2.78;;
20090;SDS011;10205;49.678;6.560;2023-05-08T06:58:28;3.60;;;3.30;;
20090;SDS011;10205;49.678;6.560;2023-05-08T07:00:55;3.47;;;3.17;;
20090;SDS011;10205;49.678;6.560;2023-05-08T07:03:24;5.95;;;3.22;;
20090;SDS011;10205;49.678;6.560;2023-05-08T07:05:52;6.18;;;3.47;;
20090;SDS011;10205;49.678;6.560;2023-05-08T07:08:19;3.33;;;3.13;;
20090;SDS011;10205;49.678;6.560;2023-05-08T07:10:47;3.13;;;2.88;;
20090;SDS011;10205;49.678;6.560;2023-05-08T07:13:15;3.17;;;2.88;;
20090;SDS011;10205;49.678;6.560;2023-05-08T07:15:47;3.33;;;3.03;;
20090;SDS011;10205;49.678;6.560;2023-05-08T07:18:14;3.33;;;2.88;;
20090;SDS011;10205;49.678;6.560;2023-05-08T07:20:41;3.42;;;2.83;;
20090;SDS011;10205;49.678;6.560;2023-05-08T07:23:08;3.45;;;3.15;;
20090;SDS011;10205;49.678;6.560;2023-05-08T07:25:35;3.40;;;3.10;;
20090;SDS011;10205;49.678;6.560;2023-05-08T07:28:02;4.07;;;3.55;;
20090;SDS011;10205;49.678;6.560;2023-05-08T07:30:29;3.30;;;3.00;;
20090;SDS011;10205;49.678;6.560;2023-05-08T07:32:59;5.40;;;3.33;;
20090;SDS011;10205;49.678;6.560;2023-05-08T07:35:26;3.67;;;3.35;;
20090;SDS011;10205;49.678;6.560;2023-05-08T07:37:53;3.42;;;3.00;;
20090;SDS011;10205;49.678;6.560;2023-05-08T07:40:20;2.90;;;2.70;;
20090;SDS011;10205;49.678;6.560;2023-05-08T07:42:47;4.75;;;3.17;;
20090;SDS011;10205;49.678;6.560;2023-05-08T07:45:14;3.30;;;3.00;;
20090;SDS011;10205;49.678;6.560;2023-05-08T07:47:48;3.92;;;3.13;;
20090;SDS011;10205;49.678;6.560;2023-05-08T07:50:19;6.05;;;3.40;;
20090;SDS011;10205;49.678;6.560;2023-05-08T07:52:47;5.75;;;3.50;;
20090;SDS011;10205;49.678;6.560;2023-05-08T07:55:18;3.20;;;2.90;;
20090;SDS011;10205;49.678;6.560;2023-05-08T07:57:45;3.55;;;3.10;;
20090;SDS011;10205;49.678;6.560;2023-05-08T08:00:13;4.15;;;3.08;;
20090;SDS011;10205;49.678;6.560;2023-05-08T08:02:41;5.38;;;3.50;;
20090;SDS011;10205;49.678;6.560;2023-05-08T08:05:09;3.63;;;3.28;;
20090;SDS011;10205;49.678;6.560;2023-05-08T08:07:38;4.13;;;2.88;;
20090;SDS011;10205;49.678;6.560;2023-05-08T08:10:06;3.22;;;2.97;;
20090;SDS011;10205;49.678;6.560;2023-05-08T08:12:36;5.05;;;3.83;;
20090;SDS011;10205;49.678;6.560;2023-05-08T08:15:04;3.75;;;3.45;;
20090;SDS011;10205;49.678;6.560;2023-05-08T08:17:32;3.10;;;2.75;;
20090;SDS011;10205;49.678;6.560;2023-05-08T08:19:59;3.35;;;2.95;;
20090;SDS011;10205;49.678;6.560;2023-05-08T08:22:27;3.25;;;2.95;;
20090;SDS011;10205;49.678;6.560;2023-05-08T08:24:55;3.42;;;3.13;;
20090;SDS011;10205;49.678;6.560;2023-05-08T08:27:22;3.00;;;2.80;;
20090;SDS011;10205;49.678;6.560;2023-05-08T08:29:49;3.53;;;3.15;;
20090;SDS011;10205;49.678;6.560;2023-05-08T08:32:16;3.05;;;2.75;;
20090;SDS011;10205;49.678;6.560;2023-05-08T08:34:43;3.22;;;2.95;;
20090;SDS011;10205;49.678;6.560;2023-05-08T08:37:10;3.00;;;2.70;;
20090;SDS011;10205;49.678;6.560;2023-05-08T08:39:38;3.85;;;2.67;;
20090;SDS011;10205;49.678;6.560;2023-05-08T08:42:06;2.63;;;2.42;;
20090;SDS011;10205;49.678;6.560;2023-05-08T08:44:33;3.83;;;2.58;;
20090;SDS011;10205;49.678;6.560;2023-05-08T08:47:01;2.97;;;2.28;;
20090;SDS011;10205;49.678;6.560;2023-05-08T08:49:31;2.35;;;2.10;;
20090;SDS011;10205;49.678;6.560;2023-05-08T08:52:02;2.75;;;2.42;;
20090;SDS011;10205;49.678;6.560;2023-05-08T08:54:37;2.70;;;2.50;;
20090;SDS011;10205;49.678;6.560;2023-05-08T08:57:10;2.70;;;2.50;;
20090;SDS011;10205;49.678;6.560;2023-05-08T08:59:39;2.90;;;2.60;;
20090;SDS011;10205;49.678;6.560;2023-05-08T09:02:09;3.03;;;2.72;;
20090;SDS011;10205;49.678;6.560;2023-05-08T09:04:41;2.63;;;2.42;;
20090;SDS011;10205;49.678;6.560;2023-05-08T09:07:09;3.00;;;2.70;;
20090;SDS011;10205;49.678;6.560;2023-05-08T09:09:38;3.53;;;2.50;;
20090;SDS011;10205;49.678;6.560;2023-05-08T09:12:08;3.20;;;2.60;;
20090;SDS011;10205;49.678;6.560;2023-05-08T09:14:38;2.47;;;2.28;;
20090;SDS011;10205;49.678;6.560;2023-05-08T09:17:05;2.80;;;2.60;;
20090;SDS011;10205;49.678;6.560;2023-05-08T09:19:32;2.45;;;2.22;;
20090;SDS011;10205;49.678;6.560;2023-05-08T09:22:01;3.03;;;2.65;;
20090;SDS011;10205;49.678;6.560;2023-05-08T09:24:53;2.47;;;2.28;;
20090;SDS011;10205;49.678;6.560;2023-05-08T09:27:24;3.78;;;2.25;;
20090;SDS011;10205;49.678;6.560;2023-05-08T09:29:57;2.90;;;2.60;;
20090;SDS011;10205;49.678;6.560;2023-05-08T09:32:30;3.67;;;2.80;;
20090;SDS011;10205;49.678;6.560;2023-05-08T09:34:58;3.05;;;2.20;;
20090;SDS011;10205;49.678;6.560;2023-05-08T09:37:27;3.13;;;2.20;;
20090;SDS011;10205;49.678;6.560;2023-05-08T09:40:00;2.40;;;2.00;;
20090;SDS011;10205;49.678;6.560;2023-05-08T09:42:42;2.72;;;2.50;;
20090;SDS011;10205;49.678;6.560;2023-05-08T09:45:10;2.80;;;2.60;;
20090;SDS011;10205;49.678;6.560;2023-05-08T09:47:51;2.47;;;2.28;;
20090;SDS011;10205;49.678;6.560;2023-05-08T09:50:18;3.38;;;2.58;;
20090;SDS011;10205;49.678;6.560;2023-05-08T09:52:46;2.70;;;2.50;;
20090;SDS011;10205;49.678;6.560;2023-05-08T09:55:14;2.78;;;2.40;;
20090;SDS011;10205;49.678;6.560;2023-05-08T10:00:27;2.75;;;2.35;;
20090;SDS011;10205;49.678;6.560;2023-05-08T10:02:56;2.53;;;2.28;;
20090;SDS011;10205;49.678;6.560;2023-05-08T10:05:25;2.75;;;2.33;;
20090;SDS011;10205;49.678;6.560;2023-05-08T10:07:55;2.25;;;2.08;;
20090;SDS011;10205;49.678;6.560;2023-05-08T10:10:23;2.03;;;1.88;;
20090;SDS011;10205;49.678;6.560;2023-05-08T10:12:52;3.33;;;2.10;;
20090;SDS011;10205;49.678;6.560;2023-05-08T10:15:23;2.65;;;2.00;;
20090;SDS011;10205;49.678;6.560;2023-05-08T10:17:57;3.20;;;1.77;;
20090;SDS011;10205;49.678;6.560;2023-05-08T10:20:30;3.22;;;1.98;;
20090;SDS011;10205;49.678;6.560;2023-05-08T10:22:59;3.28;;;2.38;;
20090;SDS011;10205;49.678;6.560;2023-05-08T10:25:30;2.47;;;2.28;;
20090;SDS011;10205;49.678;6.560;2023-05-08T10:28:09;2.95;;;2.20;;
20090;SDS011;10205;49.678;6.560;2023-05-08T10:30:46;3.83;;;2.15;;
20090;SDS011;10205;49.678;6.560;2023-05-08T10:33:20;3.63;;;2.10;;
20090;SDS011;10205;49.678;6.560;2023-05-08T10:35:55;2.28;;;2.08;;
20090;SDS011;10205;49.678;6.560;2023-05-08T10:38:23;2.60;;;2.40;;
20090;SDS011;10205;49.678;6.560;2023-05-08T10:40:50;2.33;;;2.13;;
20090;SDS011;10205;49.678;6.560;2023-05-08T10:43:22;2.28;;;2.08;;
20090;SDS011;10205;49.678;6.560;2023-05-08T10:45:52;3.00;;;2.50;;
20090;SDS011;10205;49.678;6.560;2023-05-08T10:48:22;3.45;;;2.58;;
20090;SDS011;10205;49.678;6.560;2023-05-08T10:50:59;1.90;;;1.80;;
20090;SDS011;10205;49.678;6.560;2023-05-08T10:53:33;2.22;;;2.03;;
20090;SDS011;10205;49.678;6.560;2023-05-08T10:56:05;2.50;;;2.30;;
20090;SDS011;10205;49.678;6.560;2023-05-08T10:58:34;2.45;;;2.13;;
20090;SDS011;10205;49.678;6.560;2023-05-08T11:01:14;2.78;;;2.30;;
20090;SDS011;10205;49.678;6.560;2023-05-08T11:03:43;2.20;;;2.00;;
20090;SDS011;10205;49.678;6.560;2023-05-08T11:06:14;2.30;;;2.10;;
20090;SDS011;10205;49.678;6.560;2023-05-08T11:08:45;2.38;;;2.13;;
20090;SDS011;10205;49.678;6.560;2023-05-08T11:11:26;2.00;;;1.90;;
20090;SDS011;10205;49.678;6.560;2023-05-08T11:13:58;2.58;;;2.28;;
20090;SDS011;10205;49.678;6.560;2023-05-08T11:19:34;2.72;;;2.10;;
20090;SDS011;10205;49.678;6.560;2023-05-08T11:22:13;2.55;;;2.35;;
20090;SDS011;10205;49.678;6.560;2023-05-08T11:24:53;2.53;;;2.30;;
20090;SDS011;10205;49.678;6.560;2023-05-08T11:27:36;2.80;;;2.60;;
20090;SDS011;10205;49.678;6.560;2023-05-08T11:30:22;3.10;;;2.83;;
20090;SDS011;10205;49.678;6.560;2023-05-08T11:33:13;2.60;;;2.40;;
20090;SDS011;10205;49.678;6.560;2023-05-08T11:35:43;3.83;;;2.70;;
20090;SDS011;10205;49.678;6.560;2023-05-08T11:38:22;2.38;;;2.17;;
20090;SDS011;10205;49.678;6.560;2023-05-08T11:40:59;2.33;;;2.13;;
20090;SDS011;10205;49.678;6.560;2023-05-08T11:43:35;2.22;;;2.03;;
20090;SDS011;10205;49.678;6.560;2023-05-08T11:46:39;2.40;;;2.20;;
20090;SDS011;10205;49.678;6.560;2023-05-08T11:49:11;2.30;;;2.00;;
20090;SDS011;10205;49.678;6.560;2023-05-08T11:51:41;2.30;;;2.10;;
20090;SDS011;10205;49.678;6.560;2023-05-08T11:54:15;2.13;;;1.92;;
20090;SDS011;10205;49.678;6.560;2023-05-08T11:56:44;2.33;;;2.00;;
20090;SDS011;10205;49.678;6.560;2023-05-08T11:59:13;2.05;;;1.95;;
20090;SDS011;10205;49.678;6.560;2023-05-08T12:01:41;2.55;;;2.00;;
20090;SDS011;10205;49.678;6.560;2023-05-08T12:04:09;1.80;;;1.70;;
20090;SDS011;10205;49.678;6.560;2023-05-08T12:06:39;2.70;;;1.90;;
20090;SDS011;10205;49.678;6.560;2023-05-08T12:09:09;3.08;;;1.63;;
20090;SDS011;10205;49.678;6.560;2023-05-08T12:11:38;2.05;;;1.80;;
20090;SDS011;10205;49.678;6.560;2023-05-08T12:14:07;1.80;;;1.70;;
20090;SDS011;10205;49.678;6.560;2023-05-08T12:16:35;1.90;;;1.80;;
20090;SDS011;10205;49.678;6.560;2023-05-08T12:19:04;2.33;;;2.13;;
20090;SDS011;10205;49.678;6.560;2023-05-08T12:21:37;1.80;;;1.70;;
20090;SDS011;10205;49.678;6.560;2023-05-08T12:24:12;2.42;;;2.05;;
20090;SDS011;10205;49.678;6.560;2023-05-08T12:26:47;2.55;;;2.03;;
20090;SDS011;10205;49.678;6.560;2023-05-08T12:29:17;2.97;;;2.20;;
20090;SDS011;10205;49.678;6.560;2023-05-08T12:31:44;2.30;;;2.10;;
20090;SDS011;10205;49.678;6.560;2023-05-08T12:34:12;2.10;;;1.92;;
20090;SDS011;10205;49.678;6.560;2023-05-08T12:36:42;3.72;;;2.22;;
20090;SDS011;10205;49.678;6.560;2023-05-08T12:39:12;2.45;;;2.25;;
20090;SDS011;10205;49.678;6.560;2023-05-08T12:41:45;2.28;;;1.80;;
20090;SDS011;10205;49.678;6.560;2023-05-08T12:44:17;2.50;;;2.30;;
20090;SDS011;10205;49.678;6.560;2023-05-08T12:46:45;2.60;;;2.20;;
20090;SDS011;10205;49.678;6.560;2023-05-08T12:49:21;2.65;;;2.45;;
20090;SDS011;10205;49.678;6.560;2023-05-08T12:51:52;2.30;;;2.10;;
20090;SDS011;10205;49.678;6.560;2023-05-08T12:54:31;2.17;;;2.08;;
20090;SDS011;10205;49.678;6.560;2023-05-08T12:57:06;2.40;;;2.10;;
20090;SDS011;10205;49.678;6.560;2023-05-08T12:59:35;2.42;;;2.22;;
20090;SDS011;10205;49.678;6.560;2023-05-08T13:02:03;2.10;;;2.00;;
20090;SDS011;10205;49.678;6.560;2023-05-08T13:04:35;2.42;;;2.22;;
20090;SDS011;10205;49.678;6.560;2023-05-08T13:07:04;2.58;;;2.38;;
20090;SDS011;10205;49.678;6.560;2023-05-08T13:09:31;2.80;;;2.17;;
20090;SDS011;10205;49.678;6.560;2023-05-08T13:11:58;4.07;;;2.40;;
20090;SDS011;10205;49.678;6.560;2023-05-08T13:14:25;2.13;;;2.03;;
20090;SDS011;10205;49.678;6.560;2023-05-08T13:16:52;2.22;;;2.03;;
20090;SDS011;10205;49.678;6.560;2023-05-08T13:19:19;2.05;;;1.80;;
20090;SDS011;10205;49.678;6.560;2023-05-08T13:21:46;3.25;;;2.13;;
20090;SDS011;10205;49.678;6.560;2023-05-08T13:24:15;2.53;;;2.33;;
20090;SDS011;10205;49.678;6.560;2023-05-08T13:26:42;2.20;;;2.10;;
20090;SDS011;10205;49.678;6.560;2023-05-08T13:29:10;1.63;;;1.52;;
20090;SDS011;10205;49.678;6.560;2023-05-08T13:31:37;2.20;;;2.00;;
20090;SDS011;10205;49.678;6.560;2023-05-08T13:34:04;2.20;;;1.95;;
20090;SDS011;10205;49.678;6.560;2023-05-08T13:36:31;2.13;;;1.95;;
20090;SDS011;10205;49.678;6.560;2023-05-08T13:38:59;1.75;;;1.65;;
20090;SDS011;10205;49.678;6.560;2023-05-08T13:41:27;2.70;;;2.15;;
20090;SDS011;10205;49.678;6.560;2023-05-08T13:43:54;2.72;;;2.05;;
20090;SDS011;10205;49.678;6.560;2023-05-08T13:46:22;2.15;;;2.03;;
20090;SDS011;10205;49.678;6.560;2023-05-08T13:48:49;2.08;;;1.98;;
20090;SDS011;10205;49.678;6.560;2023-05-08T13:51:16;2.30;;;2.10;;
20090;SDS011;10205;49.678;6.560;2023-05-08T13:53:43;1.70;;;1.60;;
20090;SDS011;10205;49.678;6.560;2023-05-08T13:56:11;2.30;;;2.10;;
20090;SDS011;10205;49.678;6.560;2023-05-08T13:58:39;2.10;;;1.90;;
20090;SDS011;10205;49.678;6.560;2023-05-08T14:01:06;2.42;;;1.98;;
20090;SDS011;10205;49.678;6.560;2023-05-08T14:03:33;1.85;;;1.75;;
20090;SDS011;10205;49.678;6.560;2023-05-08T14:06:00;1.70;;;1.60;;
20090;SDS011;10205;49.678;6.560;2023-05-08T14:08:28;2.10;;;1.90;;
20090;SDS011;10205;49.678;6.560;2023-05-08T14:10:55;1.70;;;1.60;;
20090;SDS011;10205;49.678;6.560;2023-05-08T14:13:22;2.05;;;1.80;;
20090;SDS011;10205;49.678;6.560;2023-05-08T14:15:51;1.80;;;1.60;;
20090;SDS011;10205;49.678;6.560;2023-05-08T14:18:18;1.60;;;1.50;;
20090;SDS011;10205;49.678;6.560;2023-05-08T14:20:45;1.88;;;1.75;;
20090;SDS011;10205;49.678;6.560;2023-05-08T14:23:13;2.17;;;2.05;;
20090;SDS011;10205;49.678;6.560;2023-05-08T14:25:40;1.88;;;1.77;;
20090;SDS011;10205;49.678;6.560;2023-05-08T14:28:07;2.03;;;1.80;;
20090;SDS011;10205;49.678;6.560;2023-05-08T14:30:34;2.17;;;2.08;;
20090;SDS011;10205;49.678;6.560;2023-05-08T14:33:03;2.00;;;1.90;;
20090;SDS011;10205;49.678;6.560;2023-05-08T14:35:30;1.92;;;1.83;;
20090;SDS011;10205;49.678;6.560;2023-05-08T14:37:57;2.22;;;2.00;;
20090;SDS011;10205;49.678;6.560;2023-05-08T14:40:24;2.10;;;1.90;;
20090;SDS011;10205;49.678;6.560;2023-05-08T14:42:51;2.80;;;2.10;;
20090;SDS011;10205;49.678;6.560;2023-05-08T14:45:18;2.45;;;2.25;;
20090;SDS011;10205;49.678;6.560;2023-05-08T14:47:45;2.50;;;2.30;;
20090;SDS011;10205;49.678;6.560;2023-05-08T14:50:14;2.20;;;2.00;;
20090;SDS011;10205;49.678;6.560;2023-05-08T14:52:41;3.10;;;1.95;;
20090;SDS011;10205;49.678;6.560;2023-05-08T14:55:08;2.17;;;2.00;;
20090;SDS011;10205;49.678;6.560;2023-05-08T14:57:35;2.30;;;2.10;;
20090;SDS011;10205;49.678;6.560;2023-05-08T15:00:03;3.13;;;2.40;;
20090;SDS011;10205;49.678;6.560;2023-05-08T15:02:32;2.42;;;2.22;;
20090;SDS011;10205;49.678;6.560;2023-05-08T15:04:59;2.95;;;2.13;;
20090;SDS011;10205;49.678;6.560;2023-05-08T15:07:28;2.40;;;2.20;;
20090;SDS011;10205;49.678;6.560;2023-05-08T15:09:55;2.58;;;2.13;;
20090;SDS011;10205;49.678;6.560;2023-05-08T15:12:22;2.30;;;2.10;;
20090;SDS011;10205;49.678;6.560;2023-05-08T15:14:49;2.08;;;1.92;;
20090;SDS011;10205;49.678;6.560;2023-05-08T15:17:16;3.55;;;2.38;;
20090;SDS011;10205;49.678;6.560;2023-05-08T15:19:43;2.10;;;1.92;;